Time;durP1;ratioP1;P1;durP2;ratioP2;P2;SDS_P1;SDS_P2;PMS_P1;PMS_P2;Temp;Humidity;BMP_temperature;BMP_pressure;BME280_temperature;BME280_humidity;BME280_pressure;Samples;Min_cycle;Max_cycle;Signal;HPM_P1;HPM_P2
2022/03/01 00:00:14;;;;;;;21.13;15.53;;;;;;;;;;2048037;29;20198;-59
2022/03/01 00:01:14;;;;;;;24.40;17.10;;;;;;;;;;2048101;29;20230;-62
2022/03/01 00:02:15;;;;;;;24.37;17.50;;;;;;;;;;2047532;29;20213;-58
2022/03/01 00:03:15;;;;;;;24.17;16.90;;;;;;;;;;2047813;29;20649;-62
2022/03/01 00:04:16;;;;;;;24.43;16.97;;;;;;;;;;2047977;29;20195;-64
2022/03/01 00:05:16;;;;;;;23.33;16.80;;;;;;;;;;2047858;28;20266;-61
2022/03/01 00:06:16;;;;;;;25.83;16.97;;;;;;;;;;2047748;29;20190;-63
2022/03/01 00:07:17;;;;;;;22.80;16.97;;;;;;;;;;2047491;29;20187;-59
2022/03/01 00:08:17;;;;;;;24.30;16.90;;;;;;;;;;2048211;29;20182;-61
2022/03/01 00:09:17;;;;;;;26.03;17.63;;;;;;;;;;2048005;28;20179;-63
2022/03/01 00:10:18;;;;;;;24.80;17.70;;;;;;;;;;2049757;28;20207;-60
2022/03/01 00:11:18;;;;;;;24.87;17.03;;;;;;;;;;2050027;28;20214;-61
2022/03/01 00:12:18;;;;;;;26.63;17.63;;;;;;;;;;2049435;29;20183;-62
2022/03/01 00:13:18;;;;;;;24.47;17.63;;;;;;;;;;2041729;29;20613;-63
2022/03/01 00:14:19;;;;;;;23.83;18.07;;;;;;;;;;2047518;29;20225;-60
2022/03/01 00:15:19;;;;;;;24.83;17.97;;;;;;;;;;2050534;29;20213;-61
2022/03/01 00:16:20;;;;;;;30.50;19.47;;;;;;;;;;2050258;29;20187;-64
2022/03/01 00:17:20;;;;;;;27.80;19.10;;;;;;;;;;2050252;28;20178;-61
2022/03/01 00:18:20;;;;;;;27.27;20.13;;;;;;;;;;2050312;29;20732;-61
2022/03/01 00:19:20;;;;;;;27.37;18.33;;;;;;;;;;2050381;28;20643;-63
2022/03/01 00:20:21;;;;;;;24.50;18.67;;;;;;;;;;2049800;28;20167;-58
2022/03/01 00:21:21;;;;;;;28.03;19.27;;;;;;;;;;2050049;28;20190;-62
2022/03/01 00:22:22;;;;;;;29.27;19.30;;;;;;;;;;2049223;28;20194;-62
2022/03/01 00:23:22;;;;;;;29.60;18.70;;;;;;;;;;2049977;29;20254;-60
2022/03/01 00:24:23;;;;;;;24.07;17.97;;;;;;;;;;2049457;29;20253;-61
2022/03/01 00:25:23;;;;;;;26.37;17.57;;;;;;;;;;2049890;28;20187;-61
2022/03/01 00:26:23;;;;;;;30.13;20.53;;;;;;;;;;2049966;28;20174;-63
2022/03/01 00:27:23;;;;;;;25.70;18.70;;;;;;;;;;2049449;29;20183;-63
2022/03/01 00:28:24;;;;;;;30.87;19.20;;;;;;;;;;2048899;28;20637;-61
2022/03/01 00:29:24;;;;;;;28.77;19.43;;;;;;;;;;2049238;29;20175;-63
2022/03/01 00:30:25;;;;;;;29.87;19.17;;;;;;;;;;2049150;29;20182;-56
2022/03/01 00:31:25;;;;;;;29.30;18.67;;;;;;;;;;2049831;29;20199;-59
2022/03/01 00:32:25;;;;;;;30.10;18.93;;;;;;;;;;2050081;29;20175;-61
2022/03/01 00:33:25;;;;;;;25.73;17.73;;;;;;;;;;2049877;29;20620;-61
2022/03/01 00:34:26;;;;;;;27.70;18.13;;;;;;;;;;2049243;29;20664;-61
2022/03/01 00:35:26;;;;;;;28.83;17.60;;;;;;;;;;2049463;29;20195;-61
2022/03/01 00:36:26;;;;;;;28.13;18.13;;;;;;;;;;2049079;29;20257;-62
2022/03/01 00:37:27;;;;;;;26.27;17.93;;;;;;;;;;2041189;29;20234;-60
2022/03/01 00:38:27;;;;;;;28.40;18.27;;;;;;;;;;2049243;29;20594;-59
2022/03/01 00:39:27;;;;;;;25.40;17.63;;;;;;;;;;2049596;28;20186;-62
2022/03/01 00:40:28;;;;;;;25.70;17.27;;;;;;;;;;2049508;28;20558;-61
2022/03/01 00:41:28;;;;;;;25.10;17.40;;;;;;;;;;2049914;29;20194;-62
2022/03/01 00:42:28;;;;;;;24.93;17.87;;;;;;;;;;2049905;29;20571;-61
2022/03/01 00:43:29;;;;;;;29.30;19.93;;;;;;;;;;2049896;28;20270;-62
2022/03/01 00:44:29;;;;;;;28.23;17.87;;;;;;;;;;2041361;29;20179;-62
2022/03/01 00:45:29;;;;;;;28.87;18.43;;;;;;;;;;2048415;29;20179;-61
2022/03/01 00:46:29;;;;;;;27.67;18.30;;;;;;;;;;2049277;29;20580;-62
2022/03/01 00:47:30;;;;;;;30.53;19.30;;;;;;;;;;2049021;28;20222;-61
2022/03/01 00:48:30;;;;;;;27.20;18.00;;;;;;;;;;2049028;29;20239;-61
2022/03/01 00:49:30;;;;;;;26.80;17.10;;;;;;;;;;2049472;29;20237;-61
2022/03/01 00:50:31;;;;;;;27.87;16.83;;;;;;;;;;2049260;28;20511;-62
2022/03/01 00:51:31;;;;;;;25.40;16.77;;;;;;;;;;2049706;29;20659;-61
2022/03/01 00:52:31;;;;;;;27.77;17.13;;;;;;;;;;2049617;28;20648;-61
2022/03/01 00:53:31;;;;;;;26.13;17.10;;;;;;;;;;2049574;29;20285;-61
2022/03/01 00:54:32;;;;;;;21.73;16.80;;;;;;;;;;2048929;29;20658;-61
2022/03/01 00:55:33;;;;;;;24.27;16.57;;;;;;;;;;2049224;29;20612;-62
2022/03/01 00:56:34;;;;;;;24.20;16.60;;;;;;;;;;2049368;28;20191;-60
2022/03/01 00:57:34;;;;;;;21.93;16.50;;;;;;;;;;2049543;28;20190;-59
2022/03/01 00:58:34;;;;;;;22.23;16.93;;;;;;;;;;2042049;29;20668;-61
2022/03/01 00:59:35;;;;;;;26.47;16.77;;;;;;;;;;2040869;29;20246;-62
2022/03/01 01:00:35;;;;;;;24.33;16.70;;;;;;;;;;2049001;29;20644;-62
2022/03/01 01:01:35;;;;;;;22.70;16.30;;;;;;;;;;2048526;29;20569;-63
2022/03/01 01:02:36;;;;;;;23.43;16.83;;;;;;;;;;2048974;29;20183;-63
2022/03/01 01:03:36;;;;;;;25.93;17.43;;;;;;;;;;2049440;28;20179;-61
2022/03/01 01:04:36;;;;;;;26.13;17.17;;;;;;;;;;2048686;29;20230;-61
2022/03/01 01:05:36;;;;;;;26.30;17.77;;;;;;;;;;2049483;28;20205;-61
2022/03/01 01:06:37;;;;;;;30.20;18.57;;;;;;;;;;2049061;29;20171;-61
2022/03/01 01:07:37;;;;;;;29.77;18.33;;;;;;;;;;2049100;29;20609;-58
2022/03/01 01:08:37;;;;;;;26.33;18.53;;;;;;;;;;2049596;29;20163;-58
2022/03/01 01:09:37;;;;;;;32.87;19.13;;;;;;;;;;2050708;28;20727;-62
2022/03/01 01:10:38;;;;;;;26.93;18.43;;;;;;;;;;2050405;28;20234;-63
2022/03/01 01:11:38;;;;;;;27.53;19.00;;;;;;;;;;2050570;28;20177;-58
2022/03/01 01:12:40;;;;;;;28.63;17.93;;;;;;;;;;2049926;29;20175;-63
2022/03/01 01:13:40;;;;;;;26.30;19.20;;;;;;;;;;2050132;28;20729;-61
2022/03/01 01:14:40;;;;;;;27.27;18.03;;;;;;;;;;2044322;29;20176;-61
2022/03/01 01:15:41;;;;;;;29.53;18.63;;;;;;;;;;2049910;28;20171;-60
2022/03/01 01:16:41;;;;;;;28.73;18.83;;;;;;;;;;2049974;28;20257;-64
2022/03/01 01:17:42;;;;;;;27.47;17.17;;;;;;;;;;2050066;29;20691;-63
2022/03/01 01:18:43;;;;;;;25.33;17.63;;;;;;;;;;2051060;29;20163;-63
2022/03/01 01:19:44;;;;;;;25.53;17.37;;;;;;;;;;2051562;28;20190;-62
2022/03/01 01:20:44;;;;;;;28.63;18.00;;;;;;;;;;2051194;28;20875;-62
2022/03/01 01:23:03;;;;;;;24.23;16.53;;;;;;;;;;2050510;29;20588;-64
2022/03/01 01:24:04;;;;;;;25.93;17.00;;;;;;;;;;2049761;29;20448;-62
2022/03/01 01:25:04;;;;;;;26.77;17.23;;;;;;;;;;2050490;29;20262;-63
2022/03/01 01:26:05;;;;;;;28.33;17.57;;;;;;;;;;2050647;28;20183;-64
2022/03/01 01:27:05;;;;;;;28.50;18.50;;;;;;;;;;2050489;29;20656;-63
2022/03/01 01:28:06;;;;;;;26.13;16.67;;;;;;;;;;2050708;29;20194;-62
2022/03/01 01:29:06;;;;;;;25.50;17.00;;;;;;;;;;2051056;28;20203;-59
2022/03/01 01:30:08;;;;;;;25.30;16.93;;;;;;;;;;2056465;28;20639;-62
2022/03/01 01:31:08;;;;;;;25.37;16.13;;;;;;;;;;2060455;28;20757;-61
2022/03/01 01:32:08;;;;;;;25.87;17.07;;;;;;;;;;2055890;28;20507;-61
2022/03/01 01:33:09;;;;;;;26.37;16.87;;;;;;;;;;2052556;29;20241;-60
2022/03/01 01:34:09;;;;;;;27.37;17.17;;;;;;;;;;2052226;29;20276;-64
2022/03/01 01:35:10;;;;;;;24.67;16.13;;;;;;;;;;2051778;29;20712;-61
2022/03/01 01:36:10;;;;;;;23.87;16.13;;;;;;;;;;2050968;28;20197;-63
2022/03/01 01:37:11;;;;;;;26.57;17.33;;;;;;;;;;2050896;29;20178;-63
2022/03/01 01:38:11;;;;;;;25.47;15.87;;;;;;;;;;2050781;28;20632;-61
2022/03/01 01:39:11;;;;;;;29.63;17.60;;;;;;;;;;2044723;28;20192;-62
2022/03/01 01:40:14;;;;;;;27.23;16.97;;;;;;;;;;2046950;29;20199;-60
2022/03/01 01:41:14;;;;;;;25.63;16.50;;;;;;;;;;2050170;28;20195;-61
2022/03/01 01:42:14;;;;;;;29.73;16.67;;;;;;;;;;2049703;29;20516;-61
2022/03/01 01:43:15;;;;;;;26.20;14.80;;;;;;;;;;2049715;29;20246;-62
2022/03/01 01:44:15;;;;;;;24.43;16.30;;;;;;;;;;2049538;29;20183;-63
2022/03/01 01:45:15;;;;;;;26.90;16.50;;;;;;;;;;2049556;29;20210;-61
2022/03/01 01:46:15;;;;;;;26.13;16.40;;;;;;;;;;2051368;28;20186;-64
2022/03/01 01:47:16;;;;;;;27.83;17.20;;;;;;;;;;2050694;29;20772;-61
2022/03/01 01:48:16;;;;;;;24.53;16.00;;;;;;;;;;2051118;29;20571;-63
2022/03/01 01:49:16;;;;;;;26.43;16.97;;;;;;;;;;2050988;29;20185;-62
2022/03/01 01:50:17;;;;;;;23.03;15.07;;;;;;;;;;2051572;29;20186;-60
2022/03/01 01:51:17;;;;;;;25.73;16.63;;;;;;;;;;2050808;28;20221;-55
2022/03/01 01:52:18;;;;;;;23.43;15.43;;;;;;;;;;2051113;29;20181;-62
2022/03/01 01:53:19;;;;;;;26.70;16.83;;;;;;;;;;2050814;28;20656;-62
2022/03/01 01:54:19;;;;;;;25.07;15.20;;;;;;;;;;2050747;28;20179;-63
2022/03/01 01:55:20;;;;;;;27.43;15.57;;;;;;;;;;2050607;29;21201;-61
2022/03/01 01:56:20;;;;;;;28.57;17.03;;;;;;;;;;2049896;29;20266;-60
2022/03/01 01:57:22;;;;;;;25.60;16.73;;;;;;;;;;2050826;29;20199;-63
2022/03/01 01:58:22;;;;;;;26.80;16.47;;;;;;;;;;2051926;29;20187;-63
2022/03/01 01:59:22;;;;;;;28.73;17.33;;;;;;;;;;2051248;29;20421;-63
2022/03/01 02:00:23;;;;;;;26.27;16.63;;;;;;;;;;2044072;29;20738;-62
2022/03/01 02:01:23;;;;;;;24.50;15.97;;;;;;;;;;2049152;29;20210;-63
2022/03/01 02:02:24;;;;;;;26.97;16.63;;;;;;;;;;2049818;29;20262;-62
2022/03/01 02:03:25;;;;;;;27.10;17.30;;;;;;;;;;2056568;28;20194;-61
2022/03/01 02:04:25;;;;;;;24.10;16.87;;;;;;;;;;2056331;28;20178;-59
2022/03/01 02:05:26;;;;;;;30.17;16.77;;;;;;;;;;2048934;28;20197;-63
2022/03/01 02:06:27;;;;;;;23.23;16.43;;;;;;;;;;2048717;29;20235;-63
2022/03/01 02:07:27;;;;;;;25.47;17.03;;;;;;;;;;2049815;28;20495;-63
2022/03/01 02:08:28;;;;;;;26.50;17.07;;;;;;;;;;2048434;28;20339;-62
2022/03/01 02:09:28;;;;;;;28.43;17.00;;;;;;;;;;2049334;28;20652;-61
2022/03/01 02:10:29;;;;;;;28.77;16.83;;;;;;;;;;2048839;28;20266;-60
2022/03/01 02:11:30;;;;;;;28.23;17.50;;;;;;;;;;2048668;29;20163;-62
2022/03/01 02:12:30;;;;;;;26.50;17.23;;;;;;;;;;2048282;29;20607;-62
2022/03/01 02:13:30;;;;;;;24.27;16.30;;;;;;;;;;2048201;29;20246;-60
2022/03/01 02:14:31;;;;;;;29.87;17.30;;;;;;;;;;2048783;28;20470;-63
2022/03/01 02:15:31;;;;;;;28.73;17.23;;;;;;;;;;2048714;28;20225;-64
2022/03/01 02:16:32;;;;;;;28.97;17.43;;;;;;;;;;2048984;29;20193;-58
2022/03/01 02:17:32;;;;;;;26.57;16.53;;;;;;;;;;2052518;29;20178;-58
2022/03/01 02:18:32;;;;;;;27.20;16.27;;;;;;;;;;2051791;29;20175;-62
2022/03/01 02:19:33;;;;;;;25.97;16.30;;;;;;;;;;2048905;29;20183;-62
2022/03/01 02:20:33;;;;;;;25.03;16.60;;;;;;;;;;2041339;29;20230;-63
2022/03/01 02:21:34;;;;;;;27.03;18.47;;;;;;;;;;2032543;29;20180;-62
2022/03/01 02:22:34;;;;;;;26.03;17.33;;;;;;;;;;2040526;29;20205;-62
2022/03/01 02:23:34;;;;;;;25.07;15.87;;;;;;;;;;2049403;29;20175;-62
2022/03/01 02:24:35;;;;;;;29.30;16.97;;;;;;;;;;2049684;29;20246;-63
2022/03/01 02:25:36;;;;;;;26.27;16.63;;;;;;;;;;2050367;28;20293;-63
2022/03/01 02:26:36;;;;;;;29.73;19.50;;;;;;;;;;2049505;28;20242;-63
2022/03/01 02:27:37;;;;;;;34.43;18.63;;;;;;;;;;2049638;29;20175;-63
2022/03/01 02:28:37;;;;;;;33.90;18.17;;;;;;;;;;2049690;28;20183;-62
2022/03/01 02:29:37;;;;;;;26.73;17.37;;;;;;;;;;2049033;29;20274;-61
2022/03/01 02:31:42;;;;;;;26.50;16.37;;;;;;;;;;2079748;23;20314;-63
2022/03/01 02:32:42;;;;;;;34.57;17.10;;;;;;;;;;2059235;28;20943;-63
2022/03/01 02:33:42;;;;;;;27.60;17.57;;;;;;;;;;2053187;28;20217;-61
2022/03/01 02:34:43;;;;;;;25.53;16.20;;;;;;;;;;2055338;28;20222;-62
2022/03/01 02:35:43;;;;;;;26.23;17.40;;;;;;;;;;2056345;28;20636;-58
2022/03/01 02:36:44;;;;;;;24.90;16.30;;;;;;;;;;2055930;28;20197;-63
2022/03/01 02:37:44;;;;;;;27.50;17.47;;;;;;;;;;2064285;28;20253;-61
2022/03/01 02:38:45;;;;;;;26.93;16.87;;;;;;;;;;2056567;28;20749;-61
2022/03/01 02:39:45;;;;;;;29.80;17.40;;;;;;;;;;2056527;28;20601;-61
2022/03/01 02:40:45;;;;;;;30.53;18.13;;;;;;;;;;2058902;28;20612;-62
2022/03/01 02:41:46;;;;;;;25.37;16.87;;;;;;;;;;2064849;28;20881;-62
2022/03/01 02:42:47;;;;;;;28.80;18.20;;;;;;;;;;2065587;28;20676;-62
2022/03/01 02:43:47;;;;;;;30.37;19.07;;;;;;;;;;2064930;28;20177;-62
2022/03/01 02:44:48;;;;;;;29.33;18.57;;;;;;;;;;2064329;28;20448;-62
2022/03/01 02:45:49;;;;;;;29.70;19.40;;;;;;;;;;2064367;28;20186;-64
2022/03/01 02:46:49;;;;;;;36.93;20.73;;;;;;;;;;2064557;28;20914;-56
2022/03/01 02:47:50;;;;;;;33.33;20.43;;;;;;;;;;2056652;28;20186;-63
2022/03/01 02:48:50;;;;;;;33.17;19.10;;;;;;;;;;2047814;29;20174;-60
2022/03/01 02:49:50;;;;;;;30.67;18.67;;;;;;;;;;2052324;28;20178;-61
2022/03/01 02:50:50;;;;;;;32.17;19.77;;;;;;;;;;2056015;28;20203;-60
2022/03/01 02:51:51;;;;;;;30.97;19.03;;;;;;;;;;2055481;28;20734;-62
2022/03/01 02:52:51;;;;;;;36.60;19.53;;;;;;;;;;2064650;28;20565;-62
2022/03/01 02:53:51;;;;;;;34.67;19.43;;;;;;;;;;2056049;28;20170;-60
2022/03/01 02:54:51;;;;;;;30.03;19.50;;;;;;;;;;2047718;29;20187;-63
2022/03/01 02:55:52;;;;;;;28.17;17.80;;;;;;;;;;2056291;28;20178;-60
2022/03/01 02:56:52;;;;;;;31.37;18.57;;;;;;;;;;2064464;28;20308;-63
2022/03/01 02:57:52;;;;;;;35.00;19.03;;;;;;;;;;2064877;28;20559;-62
2022/03/01 02:58:55;;;;;;;30.93;18.80;;;;;;;;;;2064384;28;20177;-62
2022/03/01 02:59:55;;;;;;;35.20;18.93;;;;;;;;;;2056026;28;20190;-63
2022/03/01 03:00:56;;;;;;;30.53;18.50;;;;;;;;;;2056058;28;20411;-63
2022/03/01 03:01:57;;;;;;;28.67;18.40;;;;;;;;;;2056159;28;20560;-62
2022/03/01 03:02:58;;;;;;;33.90;18.97;;;;;;;;;;2049083;28;20198;-55
2022/03/01 03:03:58;;;;;;;29.43;18.20;;;;;;;;;;2055882;28;20431;-62
2022/03/01 03:04:58;;;;;;;28.23;18.07;;;;;;;;;;2068553;28;20180;-61
2022/03/01 03:05:59;;;;;;;33.43;19.17;;;;;;;;;;2067635;28;20588;-60
2022/03/01 03:06:59;;;;;;;32.97;19.87;;;;;;;;;;2068470;28;20581;-62
2022/03/01 03:08:00;;;;;;;33.20;19.27;;;;;;;;;;2063286;28;20580;-61
2022/03/01 03:09:00;;;;;;;28.87;17.97;;;;;;;;;;2055759;28;20577;-61
2022/03/01 03:10:01;;;;;;;32.63;18.70;;;;;;;;;;2056336;28;20240;-63
2022/03/01 03:11:02;;;;;;;29.10;17.57;;;;;;;;;;2065251;28;20185;-61
2022/03/01 03:12:02;;;;;;;28.47;18.07;;;;;;;;;;2055392;28;20194;-62
2022/03/01 03:13:03;;;;;;;31.00;18.63;;;;;;;;;;2056729;28;20206;-63
2022/03/01 03:14:03;;;;;;;27.27;16.87;;;;;;;;;;2064717;28;20253;-63
2022/03/01 03:15:05;;;;;;;30.73;18.43;;;;;;;;;;2065158;28;20430;-62
2022/03/01 03:16:07;;;;;;;34.13;19.03;;;;;;;;;;2065215;28;20265;-62
2022/03/01 03:17:07;;;;;;;32.23;18.03;;;;;;;;;;2065589;28;20787;-61
2022/03/01 03:18:08;;;;;;;31.33;18.47;;;;;;;;;;2065356;28;20445;-62
2022/03/01 03:19:10;;;;;;;28.97;18.77;;;;;;;;;;2065409;28;20174;-61
2022/03/01 03:20:11;;;;;;;28.27;17.63;;;;;;;;;;2065333;28;20642;-62
2022/03/01 03:21:11;;;;;;;28.13;17.03;;;;;;;;;;2065279;28;20419;-62
2022/03/01 03:22:11;;;;;;;28.63;18.03;;;;;;;;;;2065304;28;20172;-63
2022/03/01 03:23:12;;;;;;;29.33;17.37;;;;;;;;;;2065151;28;20252;-63
2022/03/01 03:24:12;;;;;;;29.97;17.93;;;;;;;;;;2065271;28;20549;-61
2022/03/01 03:25:12;;;;;;;27.67;16.40;;;;;;;;;;2064314;28;20178;-62
2022/03/01 03:26:13;;;;;;;29.10;17.63;;;;;;;;;;2069843;28;20672;-62
2022/03/01 03:27:13;;;;;;;28.10;16.77;;;;;;;;;;2070161;28;20220;-62
2022/03/01 03:28:13;;;;;;;29.23;17.13;;;;;;;;;;2072510;28;20192;-62
2022/03/01 03:29:13;;;;;;;28.60;16.63;;;;;;;;;;2068396;28;20201;-62
2022/03/01 03:30:14;;;;;;;26.63;16.47;;;;;;;;;;2070541;28;20188;-63
2022/03/01 03:31:14;;;;;;;27.40;17.53;;;;;;;;;;2067835;28;20292;-62
2022/03/01 03:32:14;;;;;;;26.70;17.27;;;;;;;;;;2070314;28;20181;-62
2022/03/01 03:33:14;;;;;;;33.33;18.83;;;;;;;;;;2070681;28;20173;-63
2022/03/01 03:34:15;;;;;;;29.70;18.70;;;;;;;;;;2061633;28;20186;-63
2022/03/01 03:35:15;;;;;;;27.53;17.13;;;;;;;;;;2064624;28;20181;-62
2022/03/01 03:36:15;;;;;;;24.53;17.23;;;;;;;;;;2063315;28;20196;-63
2022/03/01 03:37:15;;;;;;;27.43;16.90;;;;;;;;;;2062381;28;20185;-63
2022/03/01 03:38:16;;;;;;;28.73;16.80;;;;;;;;;;2064563;28;20546;-62
2022/03/01 03:39:17;;;;;;;27.10;16.93;;;;;;;;;;2055697;28;20582;-61
2022/03/01 03:40:17;;;;;;;28.50;18.30;;;;;;;;;;2054189;28;20730;-62
2022/03/01 03:41:17;;;;;;;26.27;17.80;;;;;;;;;;2060475;28;20644;-62
2022/03/01 03:42:18;;;;;;;28.40;17.10;;;;;;;;;;2062005;28;20349;-62
2022/03/01 03:43:18;;;;;;;24.63;16.10;;;;;;;;;;2061706;28;20178;-62
2022/03/01 03:44:18;;;;;;;26.93;17.60;;;;;;;;;;2063690;28;20269;-62
2022/03/01 03:45:19;;;;;;;28.70;18.37;;;;;;;;;;2063107;28;20178;-62
2022/03/01 03:46:20;;;;;;;31.97;17.90;;;;;;;;;;2064624;28;20209;-62
2022/03/01 03:47:21;;;;;;;26.93;17.60;;;;;;;;;;2064767;28;20212;-61
2022/03/01 03:48:21;;;;;;;29.53;18.17;;;;;;;;;;2064395;28;20431;-62
2022/03/01 03:49:22;;;;;;;27.90;17.90;;;;;;;;;;2064568;28;20177;-61
2022/03/01 03:50:23;;;;;;;24.97;16.57;;;;;;;;;;2064597;28;20220;-61
2022/03/01 03:51:23;;;;;;;30.10;17.43;;;;;;;;;;2064237;28;20946;-62
2022/03/01 03:52:24;;;;;;;24.13;16.57;;;;;;;;;;2064815;28;20675;-59
2022/03/01 03:53:24;;;;;;;25.93;17.30;;;;;;;;;;2064554;28;20903;-63
2022/03/01 03:54:25;;;;;;;30.63;18.47;;;;;;;;;;2060744;28;20215;-61
2022/03/01 03:55:25;;;;;;;26.33;17.50;;;;;;;;;;2056292;28;20586;-56
2022/03/01 03:56:26;;;;;;;27.90;16.90;;;;;;;;;;2056066;28;20178;-57
2022/03/01 03:57:26;;;;;;;26.03;18.00;;;;;;;;;;2063813;28;20190;-62
2022/03/01 03:58:26;;;;;;;25.67;17.20;;;;;;;;;;2056227;28;20233;-62
2022/03/01 03:59:26;;;;;;;29.27;17.93;;;;;;;;;;2055955;28;20181;-62
2022/03/01 04:00:27;;;;;;;27.10;17.33;;;;;;;;;;2055630;28;20214;-63
2022/03/01 04:01:27;;;;;;;29.17;19.03;;;;;;;;;;2057357;28;20201;-62
2022/03/01 04:02:27;;;;;;;27.10;16.63;;;;;;;;;;2065405;28;20185;-61
2022/03/01 04:03:28;;;;;;;28.33;17.37;;;;;;;;;;2064648;28;20193;-62
2022/03/01 04:04:28;;;;;;;31.10;18.60;;;;;;;;;;2065566;28;20284;-61
2022/03/01 04:05:28;;;;;;;24.93;16.97;;;;;;;;;;2065202;28;20185;-61
2022/03/01 04:06:29;;;;;;;28.23;16.33;;;;;;;;;;2065924;28;20205;-62
2022/03/01 04:07:30;;;;;;;30.70;18.87;;;;;;;;;;2059423;28;20182;-60
2022/03/01 04:08:30;;;;;;;33.37;18.73;;;;;;;;;;2064283;28;20174;-60
2022/03/01 04:09:30;;;;;;;26.37;17.87;;;;;;;;;;2063061;28;20221;-61
2022/03/01 04:10:30;;;;;;;24.57;17.40;;;;;;;;;;2056550;28;20182;-59
2022/03/01 04:11:31;;;;;;;30.77;18.37;;;;;;;;;;2056218;28;20244;-60
2022/03/01 04:12:31;;;;;;;28.67;17.47;;;;;;;;;;2056030;28;20217;-59
2022/03/01 04:13:31;;;;;;;32.60;18.40;;;;;;;;;;2055666;28;20189;-62
2022/03/01 04:14:32;;;;;;;28.40;17.47;;;;;;;;;;2064101;28;20213;-62
2022/03/01 04:15:33;;;;;;;28.43;18.60;;;;;;;;;;2064331;28;20193;-61
2022/03/01 04:16:33;;;;;;;31.50;18.00;;;;;;;;;;2064656;28;20189;-60
2022/03/01 04:17:34;;;;;;;30.07;17.80;;;;;;;;;;2064601;28;20177;-61
2022/03/01 04:18:35;;;;;;;29.40;17.60;;;;;;;;;;2063932;28;20235;-60
2022/03/01 04:19:35;;;;;;;28.23;16.90;;;;;;;;;;2056515;28;20553;-60
2022/03/01 04:20:35;;;;;;;26.50;18.50;;;;;;;;;;2064310;28;20174;-59
2022/03/01 04:21:36;;;;;;;31.13;18.40;;;;;;;;;;2064522;28;20201;-63
2022/03/01 04:22:37;;;;;;;28.27;18.63;;;;;;;;;;2054928;28;20175;-63
2022/03/01 04:23:37;;;;;;;25.63;17.30;;;;;;;;;;2047463;28;20183;-62
2022/03/01 04:24:38;;;;;;;25.97;18.10;;;;;;;;;;2041099;29;20255;-62
2022/03/01 04:25:38;;;;;;;32.90;18.20;;;;;;;;;;2056366;28;20174;-61
2022/03/01 04:26:38;;;;;;;28.57;18.07;;;;;;;;;;2064637;28;20178;-59
2022/03/01 04:27:39;;;;;;;27.63;18.13;;;;;;;;;;2062994;28;20538;-60
2022/03/01 04:28:39;;;;;;;28.70;18.10;;;;;;;;;;2047917;29;20610;-62
2022/03/01 04:29:39;;;;;;;30.23;18.33;;;;;;;;;;2046034;29;20207;-55
2022/03/01 04:30:39;;;;;;;27.73;18.33;;;;;;;;;;2064266;28;20636;-59
2022/03/01 04:31:40;;;;;;;26.37;17.93;;;;;;;;;;2063815;28;20217;-61
2022/03/01 04:32:40;;;;;;;32.43;18.90;;;;;;;;;;2064393;28;20498;-61
2022/03/01 04:33:40;;;;;;;28.20;17.63;;;;;;;;;;2061530;28;20177;-62
2022/03/01 04:34:41;;;;;;;32.37;19.23;;;;;;;;;;2064092;28;20188;-62
2022/03/01 04:35:42;;;;;;;30.97;19.03;;;;;;;;;;2061420;28;20186;-62
2022/03/01 04:36:42;;;;;;;29.60;18.07;;;;;;;;;;2064055;28;20197;-62
2022/03/01 04:37:42;;;;;;;27.17;17.07;;;;;;;;;;2061021;28;20225;-59
2022/03/01 04:38:43;;;;;;;28.97;17.43;;;;;;;;;;2064384;28;20575;-61
2022/03/01 04:39:43;;;;;;;29.93;17.47;;;;;;;;;;2060626;28;20209;-62
2022/03/01 04:40:43;;;;;;;28.50;17.60;;;;;;;;;;2064000;28;20196;-61
2022/03/01 04:41:44;;;;;;;27.23;18.13;;;;;;;;;;2063892;28;20189;-61
2022/03/01 04:42:44;;;;;;;31.60;18.53;;;;;;;;;;2055692;28;20190;-62
2022/03/01 04:43:45;;;;;;;32.67;18.63;;;;;;;;;;2055735;28;20357;-61
2022/03/01 04:44:45;;;;;;;28.20;18.30;;;;;;;;;;2056729;28;20231;-60
2022/03/01 04:45:45;;;;;;;30.20;17.83;;;;;;;;;;2058007;28;20218;-61
2022/03/01 04:46:46;;;;;;;30.43;18.60;;;;;;;;;;2064299;28;20173;-61
2022/03/01 04:47:46;;;;;;;30.60;18.37;;;;;;;;;;2058082;28;20178;-61
2022/03/01 04:48:46;;;;;;;32.20;18.47;;;;;;;;;;2058267;28;20482;-62
2022/03/01 04:49:47;;;;;;;27.13;18.37;;;;;;;;;;2055472;28;20201;-62
2022/03/01 04:50:47;;;;;;;27.10;17.33;;;;;;;;;;2055521;28;20182;-62
2022/03/01 04:51:47;;;;;;;28.90;18.80;;;;;;;;;;2059625;28;20621;-61
2022/03/01 04:52:48;;;;;;;31.83;18.93;;;;;;;;;;2064518;28;20166;-56
2022/03/01 04:53:49;;;;;;;27.77;17.93;;;;;;;;;;2052521;28;20201;-61
2022/03/01 04:54:49;;;;;;;28.87;18.07;;;;;;;;;;2054770;28;20651;-60
2022/03/01 04:55:49;;;;;;;33.00;19.30;;;;;;;;;;2058463;28;20662;-61
2022/03/01 04:56:50;;;;;;;30.27;18.20;;;;;;;;;;2064609;28;20177;-60
2022/03/01 04:57:50;;;;;;;29.43;19.00;;;;;;;;;;2060284;28;20171;-61
2022/03/01 04:58:51;;;;;;;32.13;18.37;;;;;;;;;;2065095;28;20629;-61
2022/03/01 04:59:51;;;;;;;31.67;19.23;;;;;;;;;;2060082;28;20174;-61
2022/03/01 05:00:54;;;;;;;28.57;19.20;;;;;;;;;;2064500;28;20192;-61
2022/03/01 05:01:55;;;;;;;29.63;18.33;;;;;;;;;;2062728;28;20256;-61
2022/03/01 05:02:55;;;;;;;26.93;17.60;;;;;;;;;;2063549;28;20419;-60
2022/03/01 05:03:55;;;;;;;29.77;18.77;;;;;;;;;;2054480;28;20263;-61
2022/03/01 05:04:56;;;;;;;29.97;19.00;;;;;;;;;;2057111;28;20269;-58
2022/03/01 05:05:56;;;;;;;30.77;18.07;;;;;;;;;;2065687;28;20663;-61
2022/03/01 05:06:56;;;;;;;34.60;20.10;;;;;;;;;;2065969;28;20221;-62
2022/03/01 05:07:57;;;;;;;31.73;19.67;;;;;;;;;;2065829;28;20173;-58
2022/03/01 05:08:57;;;;;;;31.07;18.73;;;;;;;;;;2065949;28;20535;-61
2022/03/01 05:09:57;;;;;;;31.93;21.07;;;;;;;;;;2065685;28;20173;-61
2022/03/01 05:10:58;;;;;;;27.50;17.97;;;;;;;;;;2064746;28;20880;-62
2022/03/01 05:11:58;;;;;;;29.17;19.10;;;;;;;;;;2056894;28;20592;-62
2022/03/01 05:12:59;;;;;;;30.97;18.93;;;;;;;;;;2057217;28;20178;-61
2022/03/01 05:14:00;;;;;;;29.40;19.10;;;;;;;;;;2065067;28;20177;-57
2022/03/01 05:15:00;;;;;;;29.67;18.30;;;;;;;;;;2061412;28;20186;-62
2022/03/01 05:16:00;;;;;;;29.90;19.53;;;;;;;;;;2066093;28;20257;-62
2022/03/01 05:17:01;;;;;;;32.70;19.30;;;;;;;;;;2065827;28;20595;-63
2022/03/01 05:18:01;;;;;;;30.90;19.13;;;;;;;;;;2065918;28;20205;-62
2022/03/01 05:19:01;;;;;;;30.93;18.87;;;;;;;;;;2063115;28;20224;-61
2022/03/01 05:20:02;;;;;;;33.97;20.07;;;;;;;;;;2065295;28;20542;-61
2022/03/01 05:21:02;;;;;;;29.00;17.90;;;;;;;;;;2066213;28;21617;-60
2022/03/01 05:22:03;;;;;;;28.63;18.07;;;;;;;;;;2064132;28;20169;-64
2022/03/01 05:23:03;;;;;;;33.77;20.00;;;;;;;;;;2064753;28;20177;-61
2022/03/01 05:24:03;;;;;;;34.33;19.20;;;;;;;;;;2064208;28;20193;-60
2022/03/01 05:25:05;;;;;;;30.97;18.47;;;;;;;;;;2057207;28;20220;-61
2022/03/01 05:26:05;;;;;;;34.07;19.53;;;;;;;;;;2057882;28;20539;-61
2022/03/01 05:27:05;;;;;;;29.03;18.43;;;;;;;;;;2057252;28;20467;-62
2022/03/01 05:28:06;;;;;;;31.13;19.93;;;;;;;;;;2056728;28;20167;-59
2022/03/01 05:29:07;;;;;;;35.00;20.17;;;;;;;;;;2064330;28;20584;-60
2022/03/01 05:30:08;;;;;;;32.37;19.57;;;;;;;;;;2066169;28;20565;-59
2022/03/01 05:31:08;;;;;;;31.60;19.20;;;;;;;;;;2063371;28;20218;-60
2022/03/01 05:32:08;;;;;;;31.07;19.57;;;;;;;;;;2057358;28;20439;-59
2022/03/01 05:33:09;;;;;;;31.93;19.10;;;;;;;;;;2057605;28;20179;-59
2022/03/01 05:34:09;;;;;;;33.60;19.70;;;;;;;;;;2063962;28;20531;-59
2022/03/01 05:35:10;;;;;;;32.50;19.10;;;;;;;;;;2066038;28;20182;-62
2022/03/01 05:36:10;;;;;;;33.30;20.63;;;;;;;;;;2065954;28;20173;-60
2022/03/01 05:37:10;;;;;;;28.70;18.63;;;;;;;;;;2065890;28;20240;-61
2022/03/01 05:38:11;;;;;;;32.23;19.63;;;;;;;;;;2065876;28;20260;-60
2022/03/01 05:39:11;;;;;;;30.10;19.60;;;;;;;;;;2061700;28;20542;-60
2022/03/01 05:40:14;;;;;;;31.43;19.87;;;;;;;;;;2062722;28;20540;-61
2022/03/01 05:41:15;;;;;;;30.23;19.37;;;;;;;;;;2065920;28;20300;-58
2022/03/01 05:42:15;;;;;;;31.10;19.67;;;;;;;;;;2066334;28;20415;-60
2022/03/01 05:43:15;;;;;;;28.73;19.73;;;;;;;;;;2065857;28;20177;-59
2022/03/01 05:44:15;;;;;;;31.27;18.67;;;;;;;;;;2064771;28;20190;-62
2022/03/01 05:45:16;;;;;;;27.80;19.63;;;;;;;;;;2065590;28;20186;-60
2022/03/01 05:46:16;;;;;;;28.43;19.03;;;;;;;;;;2060939;28;20542;-62
2022/03/01 05:47:17;;;;;;;31.93;19.37;;;;;;;;;;2065597;28;20177;-60
2022/03/01 05:48:17;;;;;;;32.80;19.63;;;;;;;;;;2057346;28;20823;-61
2022/03/01 05:49:17;;;;;;;34.47;20.63;;;;;;;;;;2057014;28;20681;-58
2022/03/01 05:50:18;;;;;;;30.70;19.97;;;;;;;;;;2066689;28;20332;-61
2022/03/01 05:51:18;;;;;;;31.57;21.00;;;;;;;;;;2065917;28;20248;-61
2022/03/01 05:52:18;;;;;;;27.27;18.97;;;;;;;;;;2066378;28;20174;-59
2022/03/01 05:53:19;;;;;;;32.90;19.57;;;;;;;;;;2065960;28;20182;-62